createdAt,value
2019-06-27T00:00:44.415Z,99.30
2019-06-27T00:03:25.360Z,99.70
2019-06-27T00:06:06.325Z,99.70
2019-06-27T00:08:46.979Z,99.90
2019-06-27T00:11:27.488Z,99.90
2019-06-27T00:14:08.763Z,99.50
2019-06-27T00:16:49.324Z,99.90
2019-06-27T00:19:29.697Z,99.90
2019-06-27T00:22:10.584Z,99.90
2019-06-27T00:24:51.244Z,99.90
2019-06-27T00:27:32.084Z,99.90
2019-06-27T00:30:12.644Z,99.90
2019-06-27T00:32:53.103Z,99.90
2019-06-27T00:35:34.308Z,99.90
2019-06-27T00:38:14.808Z,99.90
2019-06-27T00:40:55.484Z,99.90
2019-06-27T00:43:36.136Z,99.90
2019-06-27T00:46:16.873Z,99.90
2019-06-27T00:48:57.380Z,99.90
2019-06-27T00:51:37.956Z,99.90
2019-06-27T00:54:18.880Z,99.90
2019-06-27T00:57:12.912Z,99.90
2019-06-27T00:59:42.169Z,99.90
2019-06-27T01:02:22.793Z,99.90
2019-06-27T01:05:03.733Z,99.90
2019-06-27T01:07:44.212Z,99.90
2019-06-27T01:10:25.141Z,99.90
2019-06-27T01:13:05.551Z,99.90
2019-06-27T01:15:46.529Z,99.90
2019-06-27T01:18:26.984Z,99.90
2019-06-27T01:21:07.789Z,99.90
2019-06-27T01:23:48.596Z,99.90
2019-06-27T01:26:29.361Z,99.90
2019-06-27T01:29:10.190Z,99.90
2019-06-27T01:31:50.653Z,99.90
2019-06-27T01:34:31.188Z,99.90
2019-06-27T01:37:12.011Z,99.90
2019-06-27T01:39:52.826Z,99.90
2019-06-27T01:42:33.422Z,99.90
2019-06-27T01:45:34.079Z,99.90
2019-06-27T01:48:14.996Z,99.90
2019-06-27T01:50:55.474Z,99.90
2019-06-27T01:53:36.130Z,99.90
2019-06-27T01:56:16.791Z,99.90
2019-06-27T01:58:57.356Z,99.90
2019-06-27T02:01:38.269Z,99.90
2019-06-27T02:04:18.861Z,99.90
2019-06-27T02:06:59.281Z,99.90
2019-06-27T02:09:39.756Z,99.90
2019-06-27T02:12:20.630Z,99.90
2019-06-27T02:15:01.211Z,99.90
2019-06-27T02:17:41.653Z,99.90
2019-06-27T02:20:23.012Z,99.90
2019-06-27T02:23:03.785Z,99.90
2019-06-27T02:25:44.688Z,99.90
2019-06-27T02:28:25.440Z,99.90
2019-06-27T02:31:06.476Z,99.90
2019-06-27T02:33:47.634Z,99.90
2019-06-27T02:36:28.391Z,99.90
2019-06-27T02:39:09.125Z,99.90
2019-06-27T02:41:49.722Z,99.90
2019-06-27T02:44:30.354Z,99.90
2019-06-27T02:47:10.802Z,99.90
2019-06-27T02:49:51.495Z,99.90
2019-06-27T02:52:31.833Z,99.90
2019-06-27T02:55:12.813Z,99.90
2019-06-27T02:57:53.756Z,99.90
2019-06-27T03:00:34.809Z,99.90
2019-06-27T03:03:15.649Z,99.90
2019-06-27T03:05:56.080Z,99.90
2019-06-27T03:08:36.957Z,99.90
2019-06-27T03:11:17.506Z,99.90
2019-06-27T03:13:58.020Z,99.90
2019-06-27T03:16:38.614Z,99.90
2019-06-27T03:19:19.494Z,99.90
2019-06-27T03:22:04.197Z,99.90
2019-06-27T03:24:42.321Z,99.90
2019-06-27T03:27:23.230Z,99.90
2019-06-27T03:30:03.653Z,99.90
2019-06-27T03:32:43.886Z,99.90
2019-06-27T03:35:24.905Z,99.90
2019-06-27T03:38:05.665Z,99.90
2019-06-27T03:40:46.568Z,99.90
2019-06-27T03:43:27.173Z,99.90
2019-06-27T03:46:08.029Z,99.90
2019-06-27T03:48:48.991Z,99.90
2019-06-27T03:51:29.827Z,99.90
2019-06-27T03:54:10.496Z,99.90
2019-06-27T03:56:51.010Z,99.90
2019-06-27T03:59:31.447Z,99.90
2019-06-27T04:02:12.325Z,99.90
2019-06-27T04:04:52.794Z,99.90
2019-06-27T04:07:33.332Z,99.90
2019-06-27T04:10:17.375Z,99.90
2019-06-27T04:12:56.875Z,99.90
2019-06-27T04:18:21.701Z,99.90
2019-06-27T04:21:02.430Z,99.90
2019-06-27T04:23:43.063Z,99.90
2019-06-27T04:26:23.945Z,99.90
2019-06-27T04:29:04.658Z,99.90
2019-06-27T04:31:45.409Z,99.90
2019-06-27T04:34:26.316Z,99.90
2019-06-27T04:37:06.843Z,99.90
2019-06-27T04:39:47.276Z,99.90
2019-06-27T04:42:27.637Z,99.90
2019-06-27T04:45:08.240Z,99.90
2019-06-27T04:47:48.955Z,99.90
2019-06-27T04:50:29.395Z,99.90
2019-06-27T04:53:09.788Z,99.90
2019-06-27T04:55:50.250Z,99.90
2019-06-27T04:58:31.016Z,99.90
2019-06-27T05:01:11.195Z,99.90
2019-06-27T05:03:52.005Z,99.90
2019-06-27T05:06:33.129Z,99.90
2019-06-27T05:09:14.172Z,99.90
2019-06-27T05:11:54.608Z,99.90
2019-06-27T05:14:35.208Z,99.90
2019-06-27T05:17:15.800Z,99.90
2019-06-27T05:19:56.859Z,99.90
2019-06-27T05:22:37.836Z,99.90
2019-06-27T05:25:18.381Z,99.90
2019-06-27T05:27:59.012Z,99.90
2019-06-27T05:30:39.782Z,99.90
2019-06-27T05:33:20.262Z,99.90
2019-06-27T05:36:02.485Z,99.90
2019-06-27T05:38:43.283Z,99.90
2019-06-27T05:41:23.756Z,99.90
2019-06-27T05:44:04.177Z,99.90
2019-06-27T05:46:45.048Z,99.90
2019-06-27T05:49:25.992Z,99.90
2019-06-27T05:52:06.713Z,99.90
2019-06-27T05:54:47.465Z,99.90
2019-06-27T05:57:28.321Z,99.90
2019-06-27T06:00:26.156Z,99.90
2019-06-27T06:02:51.186Z,99.90
2019-06-27T06:05:31.700Z,99.90
2019-06-27T06:08:12.137Z,99.90
2019-06-27T06:10:52.821Z,99.90
2019-06-27T06:13:33.435Z,99.90
2019-06-27T06:16:13.927Z,99.90
2019-06-27T06:18:54.605Z,99.90
2019-06-27T06:21:35.698Z,99.90
2019-06-27T06:24:16.311Z,99.90
2019-06-27T06:26:57.304Z,99.50
2019-06-27T06:29:38.083Z,97.30
2019-06-27T06:32:18.641Z,95.70
2019-06-27T06:34:59.299Z,96.20
2019-06-27T06:37:39.840Z,95.60
2019-06-27T06:40:20.547Z,94.00
2019-06-27T06:43:00.987Z,92.40
2019-06-27T06:45:41.949Z,92.50
2019-06-27T06:48:22.814Z,92.40
2019-06-27T06:51:03.822Z,92.10
2019-06-27T06:53:45.088Z,91.70
2019-06-27T06:56:26.049Z,90.30
2019-06-27T06:59:06.292Z,88.90
2019-06-27T07:01:46.925Z,87.70
2019-06-27T07:04:27.979Z,85.40
2019-06-27T07:07:08.758Z,81.90
2019-06-27T07:09:49.583Z,82.80
2019-06-27T07:12:30.102Z,80.80
2019-06-27T07:15:10.653Z,83.90
2019-06-27T07:17:51.254Z,85.50
2019-06-27T07:20:32.136Z,84.30
2019-06-27T07:23:12.503Z,85.20
2019-06-27T07:25:52.886Z,86.30
2019-06-27T07:28:33.458Z,84.50
2019-06-27T07:31:18.173Z,84.20
2019-06-27T07:33:56.737Z,84.20
2019-06-27T07:36:37.467Z,83.80
2019-06-27T07:39:18.275Z,85.60
2019-06-27T07:41:58.956Z,85.60
2019-06-27T07:44:39.577Z,87.40
2019-06-27T07:47:20.146Z,86.50
2019-06-27T07:50:00.560Z,85.80
2019-06-27T07:52:41.416Z,87.80
2019-06-27T07:55:21.957Z,88.00
2019-06-27T07:58:02.643Z,88.50
2019-06-27T08:00:43.685Z,88.80
2019-06-27T08:03:24.167Z,88.20
2019-06-27T08:06:04.765Z,89.00
2019-06-27T08:08:45.711Z,88.00
2019-06-27T08:11:26.121Z,88.50
2019-06-27T08:14:06.835Z,87.70
2019-06-27T08:16:47.915Z,85.60
2019-06-27T08:19:28.675Z,86.40
2019-06-27T08:22:09.191Z,85.30
2019-06-27T08:24:50.248Z,84.60
2019-06-27T08:27:30.863Z,84.40
2019-06-27T08:30:11.359Z,83.80
2019-06-27T08:32:51.799Z,81.20
2019-06-27T08:35:33.612Z,81.70
2019-06-27T08:38:14.791Z,80.50
2019-06-27T08:40:55.372Z,80.40
2019-06-27T08:43:36.010Z,79.50
2019-06-27T08:46:16.504Z,79.50
2019-06-27T08:48:57.041Z,81.10
2019-06-27T08:51:37.636Z,80.60
2019-06-27T08:54:18.713Z,78.00
2019-06-27T08:56:59.571Z,79.90
2019-06-27T08:59:40.428Z,79.40
2019-06-27T09:02:21.048Z,82.30
2019-06-27T09:05:02.030Z,78.80
2019-06-27T09:07:42.498Z,80.30
2019-06-27T09:10:23.199Z,77.90
2019-06-27T09:13:04.077Z,77.80
2019-06-27T09:15:44.757Z,76.60
2019-06-27T09:18:25.547Z,77.20
2019-06-27T09:21:06.339Z,78.40
2019-06-27T09:23:47.176Z,77.30
2019-06-27T09:26:27.933Z,79.20
2019-06-27T09:29:08.683Z,77.30
2019-06-27T09:31:49.431Z,77.60
2019-06-27T09:34:30.407Z,74.40
2019-06-27T09:37:11.137Z,74.90
2019-06-27T09:39:51.870Z,76.70
2019-06-27T09:42:32.691Z,75.70
2019-06-27T09:45:13.451Z,73.70
2019-06-27T09:47:54.636Z,74.90
2019-06-27T09:50:35.604Z,73.80
2019-06-27T09:53:16.149Z,74.40
2019-06-27T09:55:56.724Z,74.70
2019-06-27T09:58:37.380Z,73.00
2019-06-27T10:01:18.148Z,67.90
2019-06-27T10:03:58.711Z,69.60
2019-06-27T10:06:39.152Z,70.20
2019-06-27T10:09:19.612Z,71.90
2019-06-27T10:12:00.316Z,69.70
2019-06-27T10:14:41.532Z,69.60
2019-06-27T10:17:22.029Z,69.10
2019-06-27T10:20:02.629Z,68.20
2019-06-27T10:22:43.318Z,68.40
2019-06-27T10:25:24.063Z,69.20
2019-06-27T10:28:04.646Z,70.50
2019-06-27T10:30:48.935Z,70.70
2019-06-27T10:33:27.946Z,68.50
2019-06-27T10:36:08.708Z,67.20
2019-06-27T10:38:49.087Z,68.60
2019-06-27T10:41:29.807Z,68.60
2019-06-27T10:44:10.551Z,67.80
2019-06-27T10:46:51.164Z,69.40
2019-06-27T10:49:31.962Z,68.80
2019-06-27T10:52:12.666Z,68.20
2019-06-27T10:54:53.018Z,67.20
2019-06-27T10:57:33.474Z,67.20
2019-06-27T11:00:14.149Z,67.60
2019-06-27T11:02:54.861Z,67.00
2019-06-27T11:05:35.275Z,68.40
2019-06-27T11:08:16.240Z,67.00
2019-06-27T11:10:56.910Z,68.80
2019-06-27T11:13:37.940Z,66.90
2019-06-27T11:16:18.495Z,67.10
2019-06-27T11:18:59.386Z,68.40
2019-06-27T11:21:40.174Z,67.20
2019-06-27T11:24:21.085Z,67.80
2019-06-27T11:27:01.625Z,67.50
2019-06-27T11:29:42.099Z,65.80
2019-06-27T11:32:22.790Z,65.70
2019-06-27T11:35:03.506Z,68.70
2019-06-27T11:37:44.136Z,62.70
2019-06-27T11:40:24.858Z,66.50
2019-06-27T11:43:05.560Z,69.40
2019-06-27T11:45:46.183Z,68.30
2019-06-27T11:48:26.628Z,69.20
2019-06-27T11:51:07.233Z,63.60
2019-06-27T11:53:48.128Z,67.70
2019-06-27T11:56:28.596Z,67.50
2019-06-27T11:59:09.345Z,69.60
2019-06-27T12:01:50.380Z,64.10
2019-06-27T12:04:30.921Z,66.10
2019-06-27T12:07:11.367Z,63.80
2019-06-27T12:09:52.021Z,66.00
2019-06-27T12:12:32.481Z,66.20
2019-06-27T12:15:12.795Z,67.00
2019-06-27T12:17:53.147Z,63.50
2019-06-27T12:20:33.539Z,63.00
2019-06-27T12:23:13.971Z,62.80
2019-06-27T12:25:54.531Z,65.30
2019-06-27T12:28:35.328Z,64.70
2019-06-27T12:31:20.578Z,60.60
2019-06-27T12:34:06.947Z,60.40
2019-06-27T12:36:41.403Z,62.30
2019-06-27T12:39:22.596Z,64.00
2019-06-27T12:42:03.333Z,59.10
2019-06-27T12:44:43.886Z,63.60
2019-06-27T12:47:24.448Z,59.30
2019-06-27T12:50:05.048Z,61.50
2019-06-27T12:52:45.632Z,59.10
2019-06-27T12:55:26.780Z,59.50
2019-06-27T12:58:07.551Z,60.80
2019-06-27T13:00:48.160Z,59.90
2019-06-27T13:03:28.748Z,60.40
2019-06-27T13:06:09.342Z,61.20
2019-06-27T13:08:50.380Z,63.90
2019-06-27T13:11:30.912Z,63.40
2019-06-27T13:14:11.657Z,61.40
2019-06-27T13:16:52.276Z,60.70
2019-06-27T13:19:33.156Z,58.60
2019-06-27T13:22:13.678Z,59.10
2019-06-27T13:24:54.559Z,60.70
2019-06-27T13:27:35.047Z,60.20
2019-06-27T13:30:15.380Z,58.80
2019-06-27T13:32:55.779Z,59.40
2019-06-27T13:35:35.954Z,61.60
2019-06-27T13:38:17.010Z,60.20
2019-06-27T13:41:01.884Z,59.30
2019-06-27T13:43:40.556Z,56.50
2019-06-27T13:46:20.933Z,58.30
2019-06-27T13:49:01.500Z,59.10
2019-06-27T13:51:41.913Z,61.00
2019-06-27T13:54:22.900Z,59.60
2019-06-27T13:57:03.928Z,60.00
2019-06-27T13:59:45.016Z,59.60
2019-06-27T14:02:25.544Z,56.20
2019-06-27T14:05:06.515Z,59.40
2019-06-27T14:07:47.155Z,55.90
2019-06-27T14:10:27.700Z,57.10
2019-06-27T14:13:08.306Z,58.60
2019-06-27T14:15:49.060Z,58.20
2019-06-27T14:18:29.371Z,58.00
2019-06-27T14:21:09.943Z,57.40
2019-06-27T14:23:50.835Z,58.10
2019-06-27T14:26:31.583Z,57.60
2019-06-27T14:29:12.733Z,59.40
2019-06-27T14:31:53.040Z,58.80
2019-06-27T14:34:34.136Z,55.90
2019-06-27T14:37:15.224Z,55.60
2019-06-27T14:39:56.746Z,56.40
2019-06-27T14:42:37.846Z,57.70
2019-06-27T14:45:18.349Z,59.90
2019-06-27T14:47:58.801Z,58.80
2019-06-27T14:50:39.440Z,57.00
2019-06-27T14:53:19.671Z,58.50
2019-06-27T14:56:00.463Z,58.30
2019-06-27T14:58:41.499Z,58.30
2019-06-27T15:01:22.423Z,60.60
2019-06-27T15:04:03.013Z,57.90
2019-06-27T15:06:43.830Z,57.40
2019-06-27T15:09:24.793Z,56.90
2019-06-27T15:12:05.672Z,61.20
2019-06-27T15:14:49.511Z,60.80
2019-06-27T15:17:28.927Z,56.00
2019-06-27T15:20:09.570Z,56.80
2019-06-27T15:22:53.423Z,61.50
2019-06-27T15:25:34.187Z,61.10
2019-06-27T15:28:14.679Z,62.40
2019-06-27T15:30:54.926Z,58.20
2019-06-27T15:33:35.878Z,60.40
2019-06-27T15:36:16.846Z,61.50
2019-06-27T15:38:57.865Z,62.00
2019-06-27T15:41:38.254Z,65.10
2019-06-27T15:44:20.739Z,61.90
2019-06-27T15:47:01.092Z,60.00
2019-06-27T15:49:41.664Z,62.10
2019-06-27T15:52:22.467Z,62.40
2019-06-27T15:55:03.302Z,61.10
2019-06-27T15:57:44.324Z,60.90
2019-06-27T16:00:25.104Z,61.20
2019-06-27T16:03:05.524Z,61.30
2019-06-27T16:05:46.349Z,61.00
2019-06-27T16:08:27.579Z,60.20
2019-06-27T16:11:08.319Z,61.50
2019-06-27T16:13:48.934Z,63.70
2019-06-27T16:16:29.933Z,63.70
2019-06-27T16:19:10.522Z,63.30
2019-06-27T16:21:51.432Z,64.90
2019-06-27T16:24:32.161Z,62.00
2019-06-27T16:27:12.684Z,63.20
2019-06-27T16:29:53.423Z,65.50
2019-06-27T16:32:33.918Z,63.30
2019-06-27T16:35:14.815Z,64.10
2019-06-27T16:37:55.199Z,64.50
2019-06-27T16:40:36.102Z,66.70
2019-06-27T16:43:16.627Z,64.90
2019-06-27T16:45:57.104Z,65.30
2019-06-27T16:48:37.946Z,63.40
2019-06-27T16:51:20.477Z,64.70
2019-06-27T16:54:01.667Z,65.60
2019-06-27T16:56:42.092Z,63.50
2019-06-27T16:59:22.487Z,62.30
2019-06-27T17:02:06.045Z,64.20
2019-06-27T17:04:45.772Z,64.70
2019-06-27T17:07:26.254Z,60.70
2019-06-27T17:10:07.364Z,64.00
2019-06-27T17:12:47.996Z,64.80
2019-06-27T17:15:28.722Z,65.10
2019-06-27T17:18:09.479Z,62.90
2019-06-27T17:20:50.299Z,65.50
2019-06-27T17:23:31.140Z,67.00
2019-06-27T17:26:12.185Z,67.00
2019-06-27T17:28:52.375Z,68.80
2019-06-27T17:31:32.871Z,66.10
2019-06-27T17:34:14.315Z,67.40
2019-06-27T17:36:57.937Z,67.90
2019-06-27T17:39:37.580Z,65.50
2019-06-27T17:42:18.511Z,65.30
2019-06-27T17:44:59.470Z,67.40
2019-06-27T17:47:40.037Z,67.40
2019-06-27T17:50:20.713Z,66.60
2019-06-27T17:53:01.637Z,68.20
2019-06-27T17:55:42.428Z,67.60
2019-06-27T17:58:22.841Z,68.70
2019-06-27T18:01:03.584Z,66.00
2019-06-27T18:03:44.283Z,67.20
2019-06-27T18:06:24.973Z,69.00
2019-06-27T18:09:05.483Z,68.30
2019-06-27T18:11:45.875Z,68.40
2019-06-27T18:14:26.647Z,69.30
2019-06-27T18:17:07.401Z,70.80
2019-06-27T18:19:48.273Z,68.20
2019-06-27T18:22:29.216Z,69.30
2019-06-27T18:25:10.131Z,67.80
2019-06-27T18:27:51.102Z,68.50
2019-06-27T18:30:32.330Z,69.60
2019-06-27T18:33:13.023Z,69.40
2019-06-27T18:35:53.311Z,68.40
2019-06-27T18:38:34.483Z,68.40
2019-06-27T18:41:15.011Z,69.10
2019-06-27T18:43:55.435Z,69.50
2019-06-27T18:46:36.437Z,68.70
2019-06-27T18:49:16.872Z,70.10
2019-06-27T18:51:57.357Z,70.80
2019-06-27T18:54:38.003Z,69.80
2019-06-27T18:57:18.771Z,70.30
2019-06-27T18:59:59.508Z,70.90
2019-06-27T19:02:40.275Z,70.30
2019-06-27T19:05:20.721Z,69.60
2019-06-27T19:08:01.494Z,70.90
2019-06-27T19:10:42.303Z,72.50
2019-06-27T19:13:22.923Z,71.00
2019-06-27T19:16:03.607Z,72.70
2019-06-27T19:18:44.862Z,72.80
2019-06-27T19:24:30.988Z,72.70
2019-06-27T19:27:11.960Z,74.00
2019-06-27T19:29:52.596Z,72.80
2019-06-27T19:32:33.404Z,71.80
2019-06-27T19:35:14.091Z,74.30
2019-06-27T19:38:02.156Z,73.60
2019-06-27T19:40:37.131Z,74.20
2019-06-27T19:43:27.338Z,74.30
2019-06-27T19:46:00.273Z,73.10
2019-06-27T19:48:40.570Z,71.90
2019-06-27T19:51:20.908Z,73.10
2019-06-27T19:54:01.663Z,74.40
2019-06-27T19:56:42.813Z,74.40
2019-06-27T19:59:25.357Z,75.80
2019-06-27T20:02:05.915Z,75.30
2019-06-27T20:04:46.947Z,75.80
2019-06-27T20:07:27.960Z,76.20
2019-06-27T20:10:11.507Z,76.60
2019-06-27T20:12:50.627Z,76.10
2019-06-27T20:15:31.172Z,77.30
2019-06-27T20:18:11.869Z,78.50
2019-06-27T20:20:52.500Z,78.60
2019-06-27T20:23:33.000Z,79.40
2019-06-27T20:26:13.960Z,80.10
2019-06-27T20:28:54.562Z,81.00
2019-06-27T20:31:36.060Z,81.20
2019-06-27T20:34:17.256Z,82.30
2019-06-27T20:36:57.620Z,82.40
2019-06-27T20:39:38.699Z,82.20
2019-06-27T20:42:19.048Z,83.30
2019-06-27T20:44:59.485Z,84.50
2019-06-27T20:47:40.123Z,84.50
2019-06-27T20:50:21.292Z,83.20
2019-06-27T20:53:01.956Z,83.00
2019-06-27T20:55:42.816Z,82.00
2019-06-27T20:58:23.314Z,80.80
2019-06-27T21:01:03.843Z,79.10
2019-06-27T21:03:44.987Z,79.30
2019-06-27T21:06:25.470Z,79.90
2019-06-27T21:09:06.011Z,81.00
2019-06-27T21:11:46.815Z,81.40
2019-06-27T21:14:27.569Z,81.80
2019-06-27T21:17:08.243Z,81.70
2019-06-27T21:19:49.303Z,81.90
2019-06-27T21:22:30.200Z,82.00
2019-06-27T21:25:11.275Z,82.50
2019-06-27T21:27:51.745Z,83.30
2019-06-27T21:30:32.268Z,86.70
2019-06-27T21:33:12.763Z,87.70
2019-06-27T21:35:53.770Z,87.00
2019-06-27T21:38:34.746Z,86.10
2019-06-27T21:41:18.686Z,83.60
2019-06-27T21:43:57.892Z,82.60
2019-06-27T21:46:38.478Z,82.30
2019-06-27T21:49:18.629Z,83.00
2019-06-27T21:51:59.666Z,82.80
2019-06-27T21:54:40.341Z,83.40
2019-06-27T21:57:20.748Z,84.60
2019-06-27T22:00:01.454Z,85.40
2019-06-27T22:02:41.640Z,86.60
2019-06-27T22:05:22.285Z,88.30
2019-06-27T22:08:02.805Z,90.00
2019-06-27T22:10:43.563Z,91.10
2019-06-27T22:13:24.224Z,90.70
2019-06-27T22:16:04.562Z,89.00
2019-06-27T22:18:44.920Z,87.30
2019-06-27T22:21:25.610Z,87.20
2019-06-27T22:24:05.940Z,87.80
2019-06-27T22:26:46.824Z,88.30
2019-06-27T22:29:27.557Z,88.60
2019-06-27T22:32:07.888Z,90.00
2019-06-27T22:37:31.855Z,88.30
2019-06-27T22:40:33.367Z,87.60
2019-06-27T22:46:38.824Z,87.20
2019-06-27T22:49:18.953Z,89.50
2019-06-27T22:52:20.282Z,90.10
2019-06-27T22:55:03.109Z,91.20
2019-06-27T22:57:43.801Z,91.80
2019-06-27T23:00:24.441Z,92.40
2019-06-27T23:03:05.642Z,92.30
2019-06-27T23:05:46.011Z,92.20
2019-06-27T23:08:26.580Z,91.80
2019-06-27T23:11:07.516Z,90.80
2019-06-27T23:13:48.181Z,90.30
2019-06-27T23:16:28.867Z,90.80
2019-06-27T23:19:11.584Z,90.60
2019-06-27T23:21:51.544Z,90.30
2019-06-27T23:24:32.427Z,90.50
2019-06-27T23:27:13.240Z,90.50
2019-06-27T23:29:53.835Z,90.50
2019-06-27T23:32:34.773Z,90.30
2019-06-27T23:35:15.355Z,91.00
2019-06-27T23:37:56.124Z,91.70
2019-06-27T23:40:36.900Z,91.80
2019-06-27T23:43:17.784Z,91.90
2019-06-27T23:45:58.478Z,91.30
2019-06-27T23:48:39.312Z,90.80
2019-06-27T23:51:19.970Z,90.60
2019-06-27T23:54:00.280Z,90.50
2019-06-27T23:56:40.844Z,90.50
2019-06-27T23:59:21.375Z,91.00
